Time;durP1;ratioP1;P1;durP2;ratioP2;P2;SDS_P1;SDS_P2;PMS_P1;PMS_P2;Temp;Humidity;BMP_temperature;BMP_pressure;BME280_temperature;BME280_humidity;BME280_pressure;Samples;Min_cycle;Max_cycle;Signal;HPM_P1;HPM_P2
2021/03/09 00:00:13;;;;;;;15.50;5.30;;;;;;;2.25;100.00;101373.47;4980890;28;20027;-68
2021/03/09 00:02:40;;;;;;;14.93;4.87;;;;;;;2.25;100.00;101368.28;4980108;28;20467;-67
2021/03/09 00:05:06;;;;;;;14.77;5.63;;;;;;;2.24;100.00;101371.69;4984802;28;20774;-68
2021/03/09 00:07:31;;;;;;;16.63;5.10;;;;;;;2.21;100.00;101371.56;4981717;28;20285;-67
2021/03/09 00:09:57;;;;;;;13.90;5.17;;;;;;;2.20;100.00;101368.91;4976851;28;20289;-68
2021/03/09 00:12:22;;;;;;;10.87;5.40;;;;;;;2.17;100.00;101369.63;4986427;28;20030;-67
2021/03/09 00:14:48;;;;;;;16.20;5.07;;;;;;;2.16;100.00;101366.97;4986587;28;20108;-68
2021/03/09 00:17:13;;;;;;;13.67;5.33;;;;;;;2.11;100.00;101369.38;4984490;28;20383;-68
2021/03/09 00:19:39;;;;;;;11.70;5.20;;;;;;;2.10;100.00;101372.75;4984627;28;20033;-68
2021/03/09 00:22:04;;;;;;;19.20;5.27;;;;;;;2.07;100.00;101370.03;4981294;28;20084;-68
2021/03/09 00:24:30;;;;;;;13.60;5.10;;;;;;;2.04;100.00;101363.03;4983517;28;20431;-68
2021/03/09 00:26:55;;;;;;;12.80;5.00;;;;;;;2.02;100.00;101363.78;4984098;28;20049;-68
2021/03/09 00:29:21;;;;;;;15.03;5.47;;;;;;;1.99;100.00;101358.47;4982093;28;20394;-68
2021/03/09 00:31:46;;;;;;;14.67;6.13;;;;;;;1.97;100.00;101357.53;4983282;28;20044;-68
2021/03/09 00:34:11;;;;;;;16.00;6.33;;;;;;;1.97;100.00;101354.94;4981229;28;20035;-68
2021/03/09 00:36:37;;;;;;;17.63;5.73;;;;;;;1.98;100.00;101351.56;4975702;28;20422;-68
2021/03/09 00:39:03;;;;;;;14.30;5.70;;;;;;;1.98;100.00;101342.13;4985206;28;20035;-68
2021/03/09 00:41:28;;;;;;;13.73;5.13;;;;;;;2.00;100.00;101344.78;4984950;28;20026;-68
2021/03/09 00:43:54;;;;;;;14.70;5.70;;;;;;;2.00;100.00;101339.59;4987797;28;20034;-68
2021/03/09 00:46:19;;;;;;;16.17;5.50;;;;;;;1.98;100.00;101341.25;4985530;28;20045;-68
2021/03/09 00:48:44;;;;;;;15.87;6.57;;;;;;;2.01;100.00;101336.22;4981754;28;20557;-68
2021/03/09 00:51:10;;;;;;;19.70;5.70;;;;;;;1.98;100.00;101338.66;4983907;28;20026;-68
2021/03/09 00:53:35;;;;;;;14.53;5.47;;;;;;;1.98;100.00;101336.09;4979435;28;20034;-68
2021/03/09 00:56:01;;;;;;;17.53;5.87;;;;;;;1.99;100.00;101330.09;4983971;28;20030;-68
2021/03/09 00:58:27;;;;;;;15.53;4.63;;;;;;;2.01;100.00;101334.50;4978069;28;20038;-68
2021/03/09 01:00:53;;;;;;;18.83;6.40;;;;;;;2.01;100.00;101333.63;4985310;28;20030;-68
2021/03/09 01:03:18;;;;;;;19.13;6.17;;;;;;;2.01;100.00;101331.06;4960114;28;674413;-68
2021/03/09 01:05:44;;;;;;;25.13;7.73;;;;;;;1.97;100.00;101318.84;4989173;28;20101;-68
2021/03/09 01:08:09;;;;;;;17.27;5.57;;;;;;;1.92;100.00;101320.31;4982703;28;20030;-68
2021/03/09 01:10:35;;;;;;;18.77;6.20;;;;;;;1.89;100.00;101320.16;4986181;28;20136;-68
2021/03/09 01:13:01;;;;;;;19.77;6.33;;;;;;;1.90;100.00;101321.94;4980763;28;20019;-68
2021/03/09 01:15:27;;;;;;;18.53;5.97;;;;;;;1.84;100.00;101316.50;4982531;28;20289;-68
2021/03/09 01:17:52;;;;;;;19.20;6.13;;;;;;;1.85;100.00;101307.97;4987352;28;20530;-68
2021/03/09 01:20:18;;;;;;;20.13;6.03;;;;;;;1.83;100.00;101314.75;4986943;28;20026;-68
2021/03/09 01:22:43;;;;;;;22.10;7.17;;;;;;;1.81;100.00;101303.47;4987164;28;20022;-68
2021/03/09 01:25:09;;;;;;;20.67;6.60;;;;;;;1.81;100.00;101306.03;4982587;28;20034;-68
2021/03/09 01:27:35;;;;;;;18.37;6.50;;;;;;;1.77;100.00;101300.75;4988415;28;20537;-69
2021/03/09 01:30:01;;;;;;;19.30;6.70;;;;;;;1.74;100.00;101299.72;4983244;28;20092;-69
2021/03/09 01:32:26;;;;;;;18.60;6.60;;;;;;;1.75;100.00;101297.22;4984516;28;20045;-68
2021/03/09 01:34:52;;;;;;;20.90;7.27;;;;;;;1.76;100.00;101293.81;4987711;28;20054;-68
2021/03/09 01:37:18;;;;;;;26.87;7.67;;;;;;;1.76;100.00;101286.09;4985076;28;20088;-68
2021/03/09 01:39:43;;;;;;;23.00;6.63;;;;;;;1.76;100.00;101280.94;4989706;28;20038;-68
2021/03/09 01:42:09;;;;;;;26.20;7.80;;;;;;;1.75;100.00;101276.59;4985002;28;20038;-68
2021/03/09 01:44:36;;;;;;;21.93;6.97;;;;;;;1.74;100.00;101271.38;4992249;28;20060;-68
2021/03/09 01:47:02;;;;;;;17.83;6.77;;;;;;;1.72;100.00;101266.16;4984442;28;20030;-68
2021/03/09 01:49:34;;;;;;;21.83;7.07;;;;;;;1.73;100.00;101262.75;4986193;28;20277;-68
2021/03/09 01:52:01;;;;;;;25.55;7.85;;;;;;;1.69;100.00;101265.97;4987246;28;20300;-68
2021/03/09 01:54:27;;;;;;;23.07;6.13;;;;;;;1.69;100.00;101263.41;4979672;28;20376;-68
2021/03/09 01:56:53;;;;;;;20.57;6.97;;;;;;;1.68;100.00;101250.44;4992022;28;20364;-68
2021/03/09 01:59:21;;;;;;;24.93;7.37;;;;;;;1.71;100.00;101255.78;4988816;28;20331;-68
2021/03/09 02:01:46;;;;;;;24.20;6.70;;;;;;;1.70;100.00;101246.28;4987927;28;20289;-68
2021/03/09 02:04:12;;;;;;;21.93;6.93;;;;;;;1.67;100.00;101241.84;4984221;28;20287;-68
2021/03/09 02:06:38;;;;;;;26.43;7.50;;;;;;;1.70;100.00;101236.84;4985590;28;20087;-69
2021/03/09 02:09:05;;;;;;;29.03;7.33;;;;;;;1.74;100.00;101243.88;4984675;28;20056;-68
2021/03/09 02:11:34;;;;;;;23.63;7.60;;;;;;;1.72;100.00;101230.06;4987581;28;20026;-68
2021/03/09 02:14:27;;;;;;;20.60;6.80;;;;;;;1.73;100.00;101224.09;4990790;28;20336;-68
2021/03/09 02:17:15;;;;;;;26.80;6.73;;;;;;;1.76;100.00;101221.63;4985264;28;20300;-68
2021/03/09 02:20:08;;;;;;;22.43;6.87;;;;;;;1.80;100.00;101217.50;4990067;28;20030;-68
2021/03/09 02:22:42;;;;;;;27.90;7.55;;;;;;;1.83;100.00;101214.19;4988339;28;20360;-68
2021/03/09 02:25:46;;;;;;;19.37;6.97;;;;;;;1.85;100.00;101207.41;4986625;28;20466;-68
2021/03/09 02:28:45;;;;;;;22.33;7.03;;;;;;;1.86;100.00;101196.28;4984096;28;20317;-68
2021/03/09 02:31:11;;;;;;;30.83;8.53;;;;;;;1.88;100.00;101199.81;4982987;28;20286;-68
2021/03/09 02:33:50;;;;;;;29.50;7.70;;;;;;;1.88;100.00;101190.38;4988791;28;21181;-68
2021/03/09 02:36:22;;;;;;;27.93;7.80;;;;;;;1.91;100.00;101187.03;4983897;28;20285;-68
2021/03/09 02:38:55;;;;;;;31.60;9.10;;;;;;;1.92;100.00;101191.38;4979647;28;20289;-68
2021/03/09 02:41:22;;;;;;;34.70;10.00;;;;;;;1.93;100.00;101182.81;4986188;28;20050;-68
2021/03/09 02:43:51;;;;;;;38.57;10.63;;;;;;;1.96;100.00;101188.13;4986838;28;20022;-68
2021/03/09 02:46:19;;;;;;;24.23;7.23;;;;;;;1.97;100.00;101177.00;4985374;28;20355;-68
2021/03/09 02:48:46;;;;;;;31.57;9.70;;;;;;;1.99;100.00;101172.78;4989747;28;20409;-68
2021/03/09 02:51:12;;;;;;;23.90;8.13;;;;;;;1.99;100.00;101168.50;4985840;28;20285;-68
2021/03/09 02:53:44;;;;;;;30.10;8.67;;;;;;;2.00;100.00;101164.22;4986049;28;20292;-68
2021/03/09 02:56:11;;;;;;;32.17;8.48;;;;;;;2.02;100.00;101162.59;4983194;28;20465;-68
2021/03/09 02:58:39;;;;;;;28.23;7.87;;;;;;;2.01;100.00;101151.41;4981405;28;20646;-68
2021/03/09 03:01:06;;;;;;;27.23;8.27;;;;;;;2.01;100.00;101150.53;4987532;28;20695;-68
2021/03/09 03:03:32;;;;;;;23.67;7.67;;;;;;;2.04;100.00;101150.66;4987943;28;20332;-68
2021/03/09 03:06:00;;;;;;;30.57;9.13;;;;;;;2.03;100.00;101151.47;4980848;28;20274;-68
2021/03/09 03:08:29;;;;;;;25.23;7.80;;;;;;;2.05;100.00;101147.25;4988444;28;20293;-68
2021/03/09 03:10:56;;;;;;;29.23;8.37;;;;;;;2.05;100.00;101149.81;4989455;28;20301;-68
2021/03/09 03:13:22;;;;;;;30.20;10.13;;;;;;;2.03;100.00;101138.56;4985421;28;20297;-68
2021/03/09 03:15:50;;;;;;;29.50;7.67;;;;;;;2.04;100.00;101141.22;4986876;28;20289;-68
2021/03/09 03:18:17;;;;;;;29.30;9.50;;;;;;;2.04;100.00;101145.47;4985488;28;20277;-68
2021/03/09 03:20:45;;;;;;;30.63;8.47;;;;;;;2.06;100.00;101138.72;4986063;28;20277;-68
2021/03/09 03:23:12;;;;;;;36.17;8.70;;;;;;;2.07;100.00;101144.75;4985192;28;20296;-68
2021/03/09 03:25:38;;;;;;;28.13;9.93;;;;;;;2.09;100.00;101143.13;4988083;28;20351;-68
2021/03/09 03:28:08;;;;;;;32.43;9.03;;;;;;;2.10;100.00;101137.16;4984037;28;20296;-68
2021/03/09 03:30:34;;;;;;;38.03;9.87;;;;;;;2.12;100.00;101136.38;4989954;28;20281;-68
2021/03/09 03:32:59;;;;;;;29.60;9.03;;;;;;;2.14;100.00;101132.16;4987028;28;20773;-68
2021/03/09 03:35:26;;;;;;;33.73;9.70;;;;;;;2.13;100.00;101126.94;4984324;28;20033;-68
2021/03/09 03:37:52;;;;;;;29.73;8.67;;;;;;;2.13;100.00;101125.25;4982930;28;20502;-68
2021/03/09 03:40:19;;;;;;;30.33;9.33;;;;;;;2.14;100.00;101121.84;4988288;28;20413;-68
2021/03/09 03:42:46;;;;;;;35.13;10.13;;;;;;;2.16;100.00;101125.38;4987032;28;20026;-68
2021/03/09 03:45:13;;;;;;;36.13;10.23;;;;;;;2.17;100.00;101115.94;4987737;28;20296;-68
2021/03/09 03:47:39;;;;;;;34.87;9.80;;;;;;;2.19;100.00;101119.47;4981703;28;20308;-68
2021/03/09 03:50:09;;;;;;;39.77;9.60;;;;;;;2.21;100.00;101117.84;4982984;28;20317;-68
2021/03/09 03:52:46;;;;;;;37.23;11.10;;;;;;;2.21;100.00;101105.81;4989214;28;20030;-68
2021/03/09 03:55:36;;;;;;;38.63;10.47;;;;;;;2.22;100.00;101105.00;4983929;28;20663;-68
2021/03/09 03:58:21;;;;;;;39.30;11.40;;;;;;;2.23;100.00;101100.72;4981796;28;20811;-68
2021/03/09 04:00:47;;;;;;;49.23;11.60;;;;;;;2.24;100.00;101103.38;4987739;28;20670;-68
2021/03/09 04:03:14;;;;;;;42.10;12.03;;;;;;;2.25;100.00;101099.97;4983358;28;20305;-68
2021/03/09 04:05:44;;;;;;;42.50;11.37;;;;;;;2.26;100.00;101096.56;4984104;28;20031;-68
2021/03/09 04:08:09;;;;;;;39.97;11.60;;;;;;;2.30;100.00;101098.47;4984818;28;20352;-68
2021/03/09 04:10:35;;;;;;;46.87;12.07;;;;;;;2.31;100.00;101095.06;4988988;28;20396;-68
2021/03/09 04:13:01;;;;;;;42.57;12.63;;;;;;;2.30;100.00;101088.16;4977182;28;20451;-68
2021/03/09 04:15:30;;;;;;;42.23;12.27;;;;;;;2.34;100.00;101091.72;4984156;28;20372;-68
2021/03/09 04:17:57;;;;;;;53.67;13.13;;;;;;;2.37;100.00;101083.22;4986731;28;20824;-68
2021/03/09 04:20:23;;;;;;;50.53;13.23;;;;;;;2.35;100.00;101081.47;4988692;28;20313;-68
2021/03/09 04:22:51;;;;;;;43.00;13.23;;;;;;;2.37;100.00;101075.47;4985800;28;20336;-68
2021/03/09 04:25:18;;;;;;;53.10;13.70;;;;;;;2.38;100.00;101072.09;4983688;28;20297;-68
2021/03/09 04:27:45;;;;;;;49.43;13.57;;;;;;;2.39;100.00;101076.41;4985491;28;20333;-68
2021/03/09 04:30:12;;;;;;;52.40;13.77;;;;;;;2.40;100.00;101073.00;4977355;28;20821;-68
2021/03/09 04:32:38;;;;;;;51.83;15.37;;;;;;;2.42;100.00;101071.38;4981687;28;20294;-68
2021/03/09 04:35:05;;;;;;;49.10;13.67;;;;;;;2.42;100.00;101068.78;4989062;28;20285;-68
2021/03/09 04:37:31;;;;;;;51.43;14.37;;;;;;;2.43;100.00;101063.72;4983950;28;20036;-68
2021/03/09 04:39:58;;;;;;;58.57;15.67;;;;;;;2.46;100.00;101063.84;4987664;28;20286;-68
2021/03/09 04:42:24;;;;;;;48.47;13.93;;;;;;;2.46;100.00;101062.97;4988160;28;20360;-68
2021/03/09 04:44:50;;;;;;;58.83;15.27;;;;;;;2.47;100.00;101054.38;4980833;28;20361;-68
2021/03/09 04:47:16;;;;;;;50.83;13.87;;;;;;;2.49;100.00;101060.50;4983334;28;20019;-68
2021/03/09 04:49:42;;;;;;;54.47;14.23;;;;;;;2.49;100.00;101057.91;4983836;28;20034;-68
2021/03/09 04:52:11;;;;;;;50.23;14.37;;;;;;;2.46;100.00;101057.78;4983451;28;20422;-68
2021/03/09 04:54:37;;;;;;;56.77;13.30;;;;;;;2.46;100.00;101057.78;4987472;28;20065;-68
2021/03/09 04:57:02;;;;;;;45.60;14.23;;;;;;;2.46;100.00;101052.63;4985024;28;20335;-68
2021/03/09 04:59:28;;;;;;;51.13;15.30;;;;;;;2.44;100.00;101055.16;4982445;28;20317;-68
2021/03/09 05:01:53;;;;;;;47.67;14.53;;;;;;;2.47;100.00;101052.69;4983470;28;20034;-68
2021/03/09 05:04:19;;;;;;;51.73;15.40;;;;;;;2.45;100.00;101050.88;4982281;28;20046;-68
2021/03/09 05:06:45;;;;;;;53.23;15.80;;;;;;;2.43;100.00;101052.53;4980630;28;20038;-68
2021/03/09 05:09:11;;;;;;;48.87;14.50;;;;;;;2.42;100.00;101050.72;4989044;28;20100;-68
2021/03/09 05:11:36;;;;;;;51.30;14.50;;;;;;;2.41;100.00;101049.84;4987434;28;20290;-68
2021/03/09 05:14:02;;;;;;;49.80;15.07;;;;;;;2.41;100.00;101048.97;4988901;28;20034;-68
2021/03/09 05:16:27;;;;;;;49.93;13.43;;;;;;;2.35;100.00;101035.00;4989821;28;20138;-68
2021/03/09 05:18:53;;;;;;;50.27;13.23;;;;;;;2.32;100.00;101042.66;4986702;28;20038;-68
2021/03/09 05:21:19;;;;;;;46.30;13.03;;;;;;;2.29;100.00;101039.91;4990931;28;20471;-68
2021/03/09 05:23:44;;;;;;;47.27;13.90;;;;;;;2.27;100.00;101036.41;4986756;28;20084;-68
2021/03/09 05:26:10;;;;;;;49.40;14.50;;;;;;;2.28;100.00;101038.16;4991290;28;20273;-68
2021/03/09 05:28:36;;;;;;;41.90;13.17;;;;;;;2.31;100.00;101042.59;4990675;28;20112;-68
2021/03/09 05:31:02;;;;;;;46.10;13.27;;;;;;;2.29;100.00;101039.91;4989756;28;20034;-68
2021/03/09 05:33:27;;;;;;;48.17;13.97;;;;;;;2.31;100.00;101040.00;4990909;28;20018;-68
2021/03/09 05:35:53;;;;;;;39.90;13.57;;;;;;;2.30;100.00;101041.72;4992143;28;20289;-68
2021/03/09 05:38:18;;;;;;;52.77;16.13;;;;;;;2.33;100.00;101035.78;4993473;28;20543;-68
2021/03/09 05:40:44;;;;;;;56.23;14.67;;;;;;;2.33;100.00;101041.81;4994159;28;20050;-68
2021/03/09 05:43:10;;;;;;;46.60;13.33;;;;;;;2.33;100.00;101038.38;4989752;28;20034;-68
2021/03/09 05:45:36;;;;;;;48.73;13.37;;;;;;;2.30;100.00;101031.38;4992171;28;20022;-68
2021/03/09 05:48:02;;;;;;;50.83;14.47;;;;;;;2.30;100.00;101036.53;4988116;28;20356;-68
2021/03/09 05:50:27;;;;;;;41.17;13.03;;;;;;;2.30;100.00;101041.72;4990628;28;20033;-68
2021/03/09 05:52:53;;;;;;;40.30;13.27;;;;;;;2.29;100.00;101039.03;4991898;28;20391;-68
2021/03/09 05:55:18;;;;;;;41.67;13.60;;;;;;;2.28;100.00;101043.31;4990096;28;20026;-68
2021/03/09 05:57:44;;;;;;;43.13;13.43;;;;;;;2.26;100.00;101047.53;4993720;28;20443;-68
2021/03/09 06:00:11;;;;;;;55.23;14.57;;;;;;;2.24;100.00;101044.03;4989035;28;20027;-68
2021/03/09 06:02:36;;;;;;;40.17;12.90;;;;;;;2.25;100.00;101056.09;4993460;28;20027;-68
2021/03/09 06:05:03;;;;;;;49.47;14.87;;;;;;;2.23;100.00;101044.84;4991567;28;21190;-68
2021/03/09 06:07:29;;;;;;;41.50;12.30;;;;;;;2.22;100.00;101045.66;4992588;28;20484;-68
2021/03/09 06:09:54;;;;;;;35.77;13.17;;;;;;;2.23;100.00;101046.53;4991031;28;20281;-68
2021/03/09 06:12:24;;;;;;;50.97;14.67;;;;;;;2.26;100.00;101042.38;4989074;28;20023;-68
2021/03/09 06:14:55;;;;;;;40.40;11.40;;;;;;;2.22;100.00;101048.25;4990865;28;20026;-68
2021/03/09 06:17:28;;;;;;;36.23;12.17;;;;;;;2.17;100.00;101034.25;4991332;28;20293;-68
2021/03/09 06:19:54;;;;;;;31.50;11.43;;;;;;;2.19;100.00;101042.97;4985209;28;20343;-68
2021/03/09 06:22:31;;;;;;;41.40;13.93;;;;;;;2.18;100.00;101036.06;4989140;28;20278;-68
2021/03/09 06:25:03;;;;;;;46.33;13.73;;;;;;;2.21;100.00;101040.44;4988285;28;20364;-68
2021/03/09 06:27:31;;;;;;;41.25;15.02;;;;;;;2.21;100.00;101036.16;4989482;28;20289;-68
2021/03/09 06:29:57;;;;;;;46.50;15.60;;;;;;;2.19;100.00;101031.78;4990433;28;20513;-68
2021/03/09 06:32:24;;;;;;;41.77;13.97;;;;;;;2.19;100.00;101037.81;4991586;28;20315;-68
2021/03/09 06:34:54;;;;;;;44.77;14.10;;;;;;;2.17;100.00;101030.81;4989569;28;20741;-68
2021/03/09 06:37:25;;;;;;;42.30;13.80;;;;;;;2.15;100.00;101030.75;4990839;28;20282;-68
2021/03/09 06:39:54;;;;;;;48.63;14.27;;;;;;;2.16;100.00;101031.63;4991161;28;20339;-68
2021/03/09 06:42:20;;;;;;;42.57;14.17;;;;;;;2.14;100.00;101031.56;4991126;28;20356;-68
2021/03/09 06:44:49;;;;;;;49.00;15.27;;;;;;;2.08;100.00;101028.75;4989430;28;20296;-68
2021/03/09 06:47:15;;;;;;;48.67;15.30;;;;;;;2.08;100.00;101033.91;4986513;28;20269;-68
2021/03/09 06:49:51;;;;;;;50.17;14.37;;;;;;;2.05;100.00;101023.44;4986347;28;20320;-68
2021/03/09 06:52:19;;;;;;;48.00;14.47;;;;;;;2.00;100.00;101024.97;4990868;28;20541;-68
2021/03/09 06:54:47;;;;;;;44.33;14.13;;;;;;;2.02;100.00;101031.06;4992640;28;20339;-68
2021/03/09 06:57:12;;;;;;;47.43;14.77;;;;;;;2.01;100.00;101031.88;4991046;28;20331;-68
2021/03/09 06:59:41;;;;;;;38.53;13.43;;;;;;;2.02;100.00;101028.50;4990056;28;20293;-68
2021/03/09 07:02:11;;;;;;;37.80;12.77;;;;;;;2.05;100.00;101036.34;4984530;28;20026;-68
2021/03/09 07:04:42;;;;;;;41.07;12.90;;;;;;;2.04;100.00;101037.16;4991170;28;20668;-68
2021/03/09 07:07:10;;;;;;;46.67;15.10;;;;;;;2.03;100.00;101030.25;4989335;28;20702;-68
2021/03/09 07:09:35;;;;;;;35.87;12.53;;;;;;;2.05;100.00;101033.75;4986085;28;20332;-68
2021/03/09 07:12:03;;;;;;;40.43;14.37;;;;;;;2.03;100.00;101025.09;4982781;28;20277;-68
2021/03/09 07:14:32;;;;;;;41.30;13.17;;;;;;;2.04;100.00;101039.75;4986052;28;20117;-68
2021/03/09 07:17:03;;;;;;;43.33;12.93;;;;;;;2.07;100.00;101037.31;4987388;28;20352;-68
2021/03/09 07:19:44;;;;;;;38.90;14.10;;;;;;;2.06;100.00;101035.56;4991379;28;20313;-68
2021/03/09 07:22:15;;;;;;;41.20;13.67;;;;;;;2.08;100.00;101033.91;4987113;28;20273;-68
2021/03/09 07:25:01;;;;;;;40.10;12.93;;;;;;;2.07;100.00;101034.72;4991736;28;20281;-68
2021/03/09 07:27:32;;;;;;;44.07;14.10;;;;;;;2.10;100.00;101040.00;4983245;28;20336;-68
2021/03/09 07:29:58;;;;;;;46.17;16.37;;;;;;;2.14;100.00;101044.47;4989388;28;20733;-68
2021/03/09 07:32:28;;;;;;;45.57;13.70;;;;;;;2.15;100.00;101041.06;4988039;28;20297;-68
2021/03/09 07:34:54;;;;;;;46.77;14.13;;;;;;;2.14;100.00;101044.47;4991154;28;20316;-68
2021/03/09 07:37:19;;;;;;;46.33;13.43;;;;;;;2.21;100.00;101045.59;4990100;28;20281;-68
2021/03/09 07:39:45;;;;;;;42.67;13.87;;;;;;;2.22;100.00;101043.09;4992643;28;20292;-68
2021/03/09 07:42:11;;;;;;;44.60;14.73;;;;;;;2.22;100.00;101048.25;4992226;28;20105;-68
2021/03/09 07:44:38;;;;;;;49.50;13.57;;;;;;;2.22;100.00;101043.09;4991366;28;20029;-68
2021/03/09 07:47:09;;;;;;;49.07;14.43;;;;;;;2.16;100.00;101047.97;4992594;28;20124;-68
2021/03/09 07:49:39;;;;;;;42.03;13.13;;;;;;;2.13;100.00;101040.13;4993136;28;20265;-68
2021/03/09 07:52:09;;;;;;;41.97;13.67;;;;;;;2.14;100.00;101052.19;4992305;28;20355;-68
2021/03/09 07:54:35;;;;;;;46.30;14.23;;;;;;;2.19;100.00;101047.25;4984451;28;20305;-68
2021/03/09 07:57:20;;;;;;;49.70;14.80;;;;;;;2.23;100.00;101034.53;4991789;28;20305;-68
2021/03/09 07:59:57;;;;;;;44.10;14.43;;;;;;;2.27;100.00;101040.69;4989420;28;20030;-68
2021/03/09 08:02:42;;;;;;;38.87;12.87;;;;;;;2.29;100.00;101044.19;4991971;28;20733;-68
2021/03/09 08:05:09;;;;;;;41.20;13.43;;;;;;;2.37;100.00;101044.53;4991878;28;20782;-68
2021/03/09 08:07:49;;;;;;;42.30;13.00;;;;;;;2.41;100.00;101038.66;4992961;28;20297;-68
2021/03/09 08:10:27;;;;;;;43.53;13.80;;;;;;;2.49;100.00;101032.97;4990659;28;20281;-68
2021/03/09 08:12:53;;;;;;;42.73;13.83;;;;;;;2.53;100.00;101036.53;4991498;28;20304;-68
2021/03/09 08:15:19;;;;;;;41.00;13.77;;;;;;;2.56;100.00;101029.84;4991067;28;20364;-68
2021/03/09 08:17:45;;;;;;;41.23;13.70;;;;;;;2.55;100.00;101030.66;4993082;28;20269;-68
2021/03/09 08:20:49;;;;;;;37.83;12.90;;;;;;;2.64;100.00;101033.56;4991922;28;20782;-68
2021/03/09 08:23:35;;;;;;;38.97;13.30;;;;;;;2.66;100.00;101036.19;4990654;28;20121;-68
2021/03/09 08:26:05;;;;;;;33.17;11.17;;;;;;;2.70;100.00;101037.22;4992003;28;20770;-68
2021/03/09 08:28:38;;;;;;;27.27;9.63;;;;;;;2.59;100.00;101034.22;4991677;28;20618;-68
2021/03/09 08:31:10;;;;;;;27.53;10.70;;;;;;;2.59;100.00;101044.56;4991756;28;20296;-68
2021/03/09 08:33:39;;;;;;;29.10;10.20;;;;;;;2.55;100.00;101037.53;4991912;28;20291;-68
2021/03/09 08:36:20;;;;;;;35.47;11.87;;;;;;;2.58;100.00;101037.63;4991900;28;20655;-68
2021/03/09 08:39:01;;;;;;;30.57;11.70;;;;;;;2.52;100.00;101038.25;4993079;28;20611;-68
2021/03/09 08:41:46;;;;;;;37.17;11.90;;;;;;;2.51;100.00;101041.66;4991713;28;20278;-68
2021/03/09 08:44:18;;;;;;;31.23;11.97;;;;;;;2.51;100.00;101040.78;4984080;28;20285;-68
2021/03/09 08:47:07;;;;;;;38.33;13.20;;;;;;;2.53;100.00;101040.00;4992058;28;20269;-68
2021/03/09 08:49:35;;;;;;;32.53;12.10;;;;;;;2.55;100.00;101042.69;4990603;28;20041;-68
2021/03/09 08:52:05;;;;;;;36.93;12.27;;;;;;;2.60;100.00;101035.97;4992410;28;20362;-68
2021/03/09 08:54:44;;;;;;;33.37;12.03;;;;;;;2.62;100.00;101036.91;4990817;28;20261;-68
2021/03/09 08:57:09;;;;;;;30.87;11.27;;;;;;;2.64;100.00;101030.09;4992074;28;20258;-68
2021/03/09 08:59:37;;;;;;;34.50;11.50;;;;;;;2.68;100.00;101033.72;4991541;28;20271;-68
2021/03/09 09:02:17;;;;;;;36.60;12.57;;;;;;;2.71;100.00;101028.66;4991510;28;20521;-68
2021/03/09 09:04:52;;;;;;;35.63;13.13;;;;;;;2.75;100.00;101036.56;4990622;28;20313;-67
2021/03/09 09:07:31;;;;;;;35.70;12.07;;;;;;;2.77;100.00;101031.47;4992230;28;20258;-67
2021/03/09 09:10:07;;;;;;;40.80;12.90;;;;;;;2.75;100.00;101028.81;4988377;28;20638;-67
2021/03/09 09:12:35;;;;;;;33.60;12.67;;;;;;;2.72;100.00;101026.13;4991246;28;20300;-67
2021/03/09 09:15:07;;;;;;;36.10;13.47;;;;;;;2.81;100.00;101030.78;4990982;28;20280;-67
2021/03/09 09:17:33;;;;;;;35.67;13.45;;;;;;;2.85;100.00;101028.34;4991771;28;20261;-67
2021/03/09 09:20:01;;;;;;;30.30;11.93;;;;;;;2.83;100.00;101030.00;4991463;28;20037;-67
2021/03/09 09:22:27;;;;;;;32.90;12.67;;;;;;;2.86;100.00;101032.69;4990956;28;20273;-67
2021/03/09 09:25:04;;;;;;;35.43;12.13;;;;;;;2.83;100.00;101030.00;4991202;28;20293;-67
2021/03/09 09:27:41;;;;;;;31.20;11.97;;;;;;;2.86;100.00;101027.53;4990749;28;20313;-67
2021/03/09 09:30:08;;;;;;;35.67;12.27;;;;;;;2.86;100.00;101027.53;4991311;28;20618;-67
2021/03/09 09:32:45;;;;;;;33.93;12.90;;;;;;;2.92;100.00;101025.19;4991278;28;20321;-68
2021/03/09 09:35:11;;;;;;;34.37;12.33;;;;;;;3.02;100.00;101026.38;4996352;28;20269;-67
2021/03/09 09:37:44;;;;;;;34.83;12.27;;;;;;;3.15;100.00;101022.53;4991818;28;20292;-67
2021/03/09 09:40:10;;;;;;;34.43;11.93;;;;;;;3.17;100.00;101026.09;4991110;28;20026;-67
2021/03/09 09:42:36;;;;;;;29.73;12.03;;;;;;;3.20;100.00;101026.19;4992261;28;20269;-67
2021/03/09 09:45:02;;;;;;;29.60;11.70;;;;;;;3.13;100.00;101026.78;4991931;28;20777;-67
2021/03/09 09:47:27;;;;;;;32.63;11.73;;;;;;;3.23;100.00;101023.72;4993644;28;20054;-67
2021/03/09 09:49:53;;;;;;;26.77;10.70;;;;;;;3.27;100.00;101028.19;4990056;28;20719;-67
2021/03/09 09:52:19;;;;;;;30.77;11.30;;;;;;;3.27;100.00;101030.78;4989730;28;20022;-67
2021/03/09 09:54:56;;;;;;;26.97;11.13;;;;;;;3.32;100.00;101029.22;4992463;28;20023;-67
2021/03/09 09:57:23;;;;;;;29.10;11.27;;;;;;;3.32;100.00;101026.63;4996304;28;20029;-67
2021/03/09 09:59:49;;;;;;;26.90;10.97;;;;;;;3.44;100.00;101029.66;4993873;28;20340;-68
2021/03/09 10:02:20;;;;;;;27.37;10.53;;;;;;;3.65;100.00;101026.06;4994080;28;20368;-67
2021/03/09 10:04:46;;;;;;;28.37;11.33;;;;;;;3.69;100.00;101021.06;4993437;28;20292;-67
2021/03/09 10:07:17;;;;;;;26.87;10.87;;;;;;;3.68;100.00;101031.34;4994812;28;20272;-67
2021/03/09 10:09:59;;;;;;;29.63;11.03;;;;;;;3.75;100.00;101029.00;4993914;28;20278;-67
2021/03/09 10:12:33;;;;;;;28.27;10.68;;;;;;;3.73;100.00;101027.19;4995015;28;20776;-67
2021/03/09 10:14:58;;;;;;;23.33;10.03;;;;;;;3.71;100.00;101024.56;4991805;28;20541;-67
2021/03/09 10:17:24;;;;;;;29.80;11.40;;;;;;;3.75;100.00;101022.94;4995805;28;20258;-67
2021/03/09 10:19:51;;;;;;;25.43;10.23;;;;;;;3.79;100.00;101022.25;5000407;28;20032;-67
2021/03/09 10:22:22;;;;;;;28.70;10.80;;;;;;;3.75;100.00;101028.13;4993239;28;20022;-67
2021/03/09 10:24:48;;;;;;;28.47;11.03;;;;;;;3.72;100.00;101021.16;4987219;28;20289;-67
2021/03/09 10:27:19;;;;;;;24.77;10.80;;;;;;;3.69;100.00;101022.75;4995052;28;20276;-67
2021/03/09 10:29:45;;;;;;;25.53;10.23;;;;;;;3.60;100.00;101020.72;4993556;28;20116;-67
2021/03/09 10:32:15;;;;;;;27.47;10.20;;;;;;;3.46;100.00;101027.13;4997005;28;20698;-67
2021/03/09 10:34:49;;;;;;;26.67;10.63;;;;;;;3.56;100.00;101015.41;4995353;28;20030;-67
2021/03/09 10:37:36;;;;;;;27.90;10.50;;;;;;;3.54;100.00;101028.28;4986320;28;20603;-67
2021/03/09 10:40:04;;;;;;;28.80;11.30;;;;;;;3.44;100.00;101021.03;4994454;28;20745;-67
2021/03/09 10:42:36;;;;;;;27.83;11.17;;;;;;;3.56;100.00;101031.78;4994407;28;20262;-67
2021/03/09 10:45:18;;;;;;;25.75;10.85;;;;;;;3.56;100.00;101031.78;4993986;28;20283;-67
2021/03/09 10:47:47;;;;;;;29.63;11.15;;;;;;;3.52;100.00;101035.13;4988391;28;20495;-67
2021/03/09 10:50:14;;;;;;;27.80;10.63;;;;;;;3.51;100.00;101026.47;4993475;28;20375;-67
2021/03/09 10:52:39;;;;;;;26.33;11.10;;;;;;;3.53;100.00;101030.00;4999086;28;20285;-67
2021/03/09 10:55:05;;;;;;;28.03;10.53;;;;;;;3.55;100.00;101029.16;4993726;28;20360;-67
2021/03/09 10:57:31;;;;;;;28.50;10.43;;;;;;;3.65;100.00;101031.25;4993804;28;20030;-67
2021/03/09 10:59:56;;;;;;;27.63;11.90;;;;;;;3.72;100.00;101033.19;4993561;28;20101;-67
2021/03/09 11:02:22;;;;;;;26.43;10.87;;;;;;;3.68;100.00;101026.19;4991732;28;20057;-67
2021/03/09 11:04:47;;;;;;;28.10;10.67;;;;;;;3.68;100.00;101026.19;4992696;28;20077;-67
2021/03/09 11:07:13;;;;;;;28.73;10.67;;;;;;;3.68;100.00;101033.94;4993165;28;20407;-67
2021/03/09 11:09:38;;;;;;;28.13;10.10;;;;;;;3.72;100.00;101038.38;4993335;28;20030;-67
2021/03/09 11:12:04;;;;;;;31.17;11.40;;;;;;;3.65;100.00;101026.97;4994073;28;20093;-68
2021/03/09 11:14:29;;;;;;;27.40;10.47;;;;;;;3.77;100.00;101034.25;4992739;28;20037;-67
2021/03/09 11:16:55;;;;;;;28.57;11.57;;;;;;;3.81;100.00;101028.34;4991326;28;20489;-67
2021/03/09 11:19:20;;;;;;;28.57;12.00;;;;;;;3.87;100.00;101028.53;4992373;28;20022;-67